createdAt,value
2022-11-14T00:01:30.893Z,7.40
2022-11-14T00:04:34.881Z,7.30
2022-11-14T00:07:55.999Z,7.30
2022-11-14T00:11:00.290Z,7.30
2022-11-14T00:14:05.020Z,7.30
2022-11-14T00:17:13.362Z,7.30
2022-11-14T00:20:25.958Z,7.30
2022-11-14T00:23:30.321Z,7.20
2022-11-14T00:26:36.118Z,7.20
2022-11-14T00:29:40.898Z,7.20
2022-11-14T00:32:45.034Z,7.20
2022-11-14T00:35:56.422Z,7.10
2022-11-14T00:39:18.878Z,7.20
2022-11-14T00:42:25.859Z,7.10
2022-11-14T00:45:30.224Z,7.10
2022-11-14T00:48:36.918Z,7.00
2022-11-14T00:51:41.154Z,7.00
2022-11-14T00:54:45.752Z,7.00
2022-11-14T00:57:50.433Z,7.00
2022-11-14T01:00:57.514Z,6.90
2022-11-14T01:04:02.443Z,6.90
2022-11-14T01:07:06.745Z,6.90
2022-11-14T01:10:10.995Z,6.80
2022-11-14T01:13:17.501Z,6.80
2022-11-14T01:16:22.003Z,6.80
2022-11-14T01:19:26.686Z,6.70
2022-11-14T01:22:31.148Z,6.70
2022-11-14T01:25:37.233Z,6.70
2022-11-14T01:28:42.067Z,6.60
2022-11-14T01:31:46.515Z,6.60
2022-11-14T01:34:50.863Z,6.60
2022-11-14T01:37:55.322Z,6.60
2022-11-14T01:41:00.357Z,6.60
2022-11-14T01:44:37.874Z,6.50
2022-11-14T01:47:42.060Z,6.50
2022-11-14T01:50:47.845Z,6.50
2022-11-14T01:53:58.700Z,6.40
2022-11-14T01:57:04.811Z,6.40
2022-11-14T02:00:12.150Z,6.40
2022-11-14T02:03:17.192Z,6.40
2022-11-14T02:06:23.791Z,6.40
2022-11-14T02:09:38.898Z,6.30
2022-11-14T02:12:44.614Z,6.30
2022-11-14T02:15:49.039Z,6.30
2022-11-14T02:18:53.724Z,6.20
2022-11-14T02:21:57.947Z,6.20
2022-11-14T02:25:02.944Z,6.20
2022-11-14T02:28:09.454Z,6.10
2022-11-14T02:31:18.628Z,6.10
2022-11-14T02:34:22.901Z,6.10
2022-11-14T02:37:27.211Z,6.10
2022-11-14T02:40:34.835Z,6.00
2022-11-14T02:43:39.235Z,6.00
2022-11-14T02:46:43.629Z,6.00
2022-11-14T02:49:47.985Z,6.00
2022-11-14T02:52:54.061Z,5.90
2022-11-14T02:55:58.833Z,5.90
2022-11-14T02:59:02.845Z,5.90
2022-11-14T03:02:07.426Z,5.90
2022-11-14T03:05:11.685Z,5.90
2022-11-14T03:08:15.937Z,5.80
2022-11-14T03:11:20.505Z,5.80
2022-11-14T03:14:29.907Z,5.80
2022-11-14T03:17:34.674Z,5.80
2022-11-14T03:20:39.030Z,5.70
2022-11-14T03:23:43.518Z,5.70
2022-11-14T03:26:47.498Z,5.70
2022-11-14T03:29:52.052Z,5.60
2022-11-14T03:32:57.785Z,5.60
2022-11-14T03:36:02.870Z,5.60
2022-11-14T03:39:07.172Z,5.60
2022-11-14T03:42:11.457Z,5.50
2022-11-14T03:45:21.723Z,5.50
2022-11-14T03:48:26.732Z,5.40
2022-11-14T03:51:31.924Z,5.40
2022-11-14T03:54:36.189Z,5.40
2022-11-14T03:57:40.747Z,5.40
2022-11-14T04:00:45.160Z,5.30
2022-11-14T04:03:49.909Z,5.30
2022-11-14T04:06:54.253Z,5.30
2022-11-14T04:09:58.468Z,5.30
2022-11-14T04:13:04.887Z,5.20
2022-11-14T04:16:08.867Z,5.20
2022-11-14T04:19:13.398Z,5.20
2022-11-14T04:22:20.298Z,5.10
2022-11-14T04:25:30.920Z,5.10
2022-11-14T04:28:35.121Z,5.10
2022-11-14T04:31:39.733Z,5.00
2022-11-14T04:34:44.143Z,5.10
2022-11-14T04:37:48.524Z,5.00
2022-11-14T04:40:53.562Z,4.90
2022-11-14T04:43:57.897Z,4.90
2022-11-14T04:47:02.268Z,4.90
2022-11-14T04:50:07.166Z,4.90
2022-11-14T04:53:11.549Z,4.90
2022-11-14T04:56:17.406Z,4.90
2022-11-14T04:59:24.308Z,4.90
2022-11-14T05:02:31.746Z,4.90
2022-11-14T05:05:40.682Z,4.80
2022-11-14T05:08:45.906Z,4.80
2022-11-14T05:11:50.154Z,4.80
2022-11-14T05:14:54.450Z,4.80
2022-11-14T05:17:58.978Z,4.80
2022-11-14T05:21:03.986Z,4.80
2022-11-14T05:24:33.105Z,4.80
2022-11-14T05:27:37.558Z,4.70
2022-11-14T05:30:42.188Z,4.80
2022-11-14T05:33:49.293Z,4.70
2022-11-14T05:36:53.750Z,4.70
2022-11-14T05:39:57.818Z,4.60
2022-11-14T05:43:04.862Z,4.70
2022-11-14T05:46:12.474Z,4.70
2022-11-14T05:49:22.072Z,4.60
2022-11-14T05:52:27.867Z,4.60
2022-11-14T05:55:32.222Z,4.60
2022-11-14T05:58:36.662Z,4.60
2022-11-14T06:01:43.087Z,4.50
2022-11-14T06:04:47.669Z,4.50
2022-11-14T06:07:58.828Z,4.50
2022-11-14T06:11:05.241Z,4.40
2022-11-14T06:14:10.907Z,4.40
2022-11-14T06:17:15.450Z,4.30
2022-11-14T06:20:20.109Z,4.30
2022-11-14T06:23:25.061Z,4.30
2022-11-14T06:26:31.595Z,4.30
2022-11-14T06:29:36.319Z,4.30
2022-11-14T06:32:40.478Z,4.20
2022-11-14T06:35:48.324Z,4.20
2022-11-14T06:38:52.961Z,4.10
2022-11-14T06:41:56.914Z,4.10
2022-11-14T06:45:01.406Z,4.00
2022-11-14T06:48:05.986Z,4.00
2022-11-14T06:51:12.410Z,4.00
2022-11-14T06:54:17.072Z,4.00
2022-11-14T06:57:21.379Z,3.90
2022-11-14T07:00:25.639Z,3.90
2022-11-14T07:03:30.358Z,3.90
2022-11-14T07:06:34.928Z,3.90
2022-11-14T07:09:39.506Z,3.90
2022-11-14T07:12:43.635Z,3.80
2022-11-14T07:15:54.642Z,3.90
2022-11-14T07:19:00.298Z,3.90
2022-11-14T07:22:04.603Z,3.90
2022-11-14T07:25:09.283Z,3.90
2022-11-14T07:28:16.410Z,4.00
2022-11-14T07:31:21.486Z,4.00
2022-11-14T07:34:25.653Z,4.10
2022-11-14T07:37:30.139Z,4.10
2022-11-14T07:40:34.703Z,4.10
2022-11-14T07:43:39.900Z,4.20
2022-11-14T07:46:47.162Z,4.20
2022-11-14T07:49:51.352Z,4.30
2022-11-14T07:52:57.682Z,4.30
2022-11-14T07:56:05.826Z,4.40
2022-11-14T07:59:10.083Z,4.50
2022-11-14T08:02:15.178Z,4.50
2022-11-14T08:05:21.649Z,4.60
2022-11-14T08:08:25.721Z,4.60
2022-11-14T08:11:48.281Z,4.70
2022-11-14T08:14:52.591Z,4.70
2022-11-14T08:18:03.870Z,4.80
2022-11-14T08:21:08.023Z,4.90
2022-11-14T08:24:12.033Z,4.90
2022-11-14T08:27:16.630Z,5.00
2022-11-14T08:30:20.974Z,5.00
2022-11-14T08:33:25.483Z,5.10
2022-11-14T08:36:30.644Z,5.10
2022-11-14T08:39:34.943Z,5.20
2022-11-14T08:42:39.965Z,5.30
2022-11-14T08:45:44.350Z,5.30
2022-11-14T08:48:49.354Z,5.40
2022-11-14T08:51:53.865Z,5.50
2022-11-14T08:54:57.918Z,5.50
2022-11-14T08:58:05.243Z,5.60
2022-11-14T09:01:10.350Z,5.70
2022-11-14T09:04:14.901Z,5.80
2022-11-14T09:07:19.337Z,5.90
2022-11-14T09:10:23.563Z,5.90
2022-11-14T09:13:28.459Z,5.90
2022-11-14T09:16:33.926Z,6.00
2022-11-14T09:19:41.066Z,6.10
2022-11-14T09:22:48.225Z,6.10
2022-11-14T09:25:54.746Z,6.20
2022-11-14T09:29:00.535Z,6.30
2022-11-14T09:32:04.958Z,6.40
2022-11-14T09:35:09.283Z,6.50
2022-11-14T09:38:13.481Z,6.50
2022-11-14T09:41:55.107Z,6.60
2022-11-14T09:45:12.166Z,6.70
2022-11-14T09:48:21.136Z,6.80
2022-11-14T09:51:30.270Z,6.90
2022-11-14T09:54:55.355Z,7.00
2022-11-14T09:58:06.579Z,7.10
2022-11-14T10:01:23.119Z,7.30
2022-11-14T10:04:58.863Z,7.40
2022-11-14T10:08:22.980Z,7.50
2022-11-14T10:11:43.604Z,7.70
2022-11-14T10:15:06.618Z,7.80
2022-11-14T10:18:36.679Z,7.90
2022-11-14T10:21:53.448Z,8.10
2022-11-14T10:25:07.711Z,8.20
2022-11-14T10:28:32.328Z,8.30
2022-11-14T10:32:07.431Z,8.50
2022-11-14T10:35:37.965Z,8.60
2022-11-14T10:39:01.086Z,8.80
2022-11-14T10:42:13.966Z,9.00
2022-11-14T10:45:36.081Z,9.20
2022-11-14T10:48:44.452Z,9.40
2022-11-14T10:51:57.280Z,9.70
2022-11-14T10:55:08.327Z,10.10
2022-11-14T10:58:14.798Z,10.50
2022-11-14T11:01:51.107Z,11.10
2022-11-14T11:05:12.789Z,11.70
2022-11-14T11:08:44.355Z,12.40
2022-11-14T11:11:57.842Z,13.20
2022-11-14T11:15:22.250Z,14.10
2022-11-14T11:18:51.130Z,15.00
2022-11-14T11:21:55.402Z,16.00
2022-11-14T11:24:59.474Z,16.70
2022-11-14T11:28:11.434Z,17.30
2022-11-14T11:31:16.348Z,18.00
2022-11-14T11:34:47.543Z,18.80
2022-11-14T11:38:00.107Z,19.50
2022-11-14T11:42:06.209Z,20.00
2022-11-14T11:44:58.693Z,20.60
2022-11-14T11:48:23.234Z,21.30
2022-11-14T11:51:28.526Z,22.10
2022-11-14T11:55:13.122Z,22.60
2022-11-14T11:58:29.614Z,23.40
2022-11-14T12:01:33.840Z,24.00
2022-11-14T12:04:38.150Z,24.60
2022-11-14T12:07:57.195Z,25.50
2022-11-14T12:11:04.201Z,26.20
2022-11-14T12:14:48.485Z,26.90
2022-11-14T12:18:23.703Z,27.20
2022-11-14T12:22:07.826Z,27.70
2022-11-14T12:25:43.981Z,28.00
2022-11-14T12:28:58.978Z,28.00
2022-11-14T12:32:07.782Z,27.80
2022-11-14T12:35:23.910Z,28.10
2022-11-14T12:38:35.895Z,28.50
2022-11-14T12:41:41.523Z,28.90
2022-11-14T12:44:46.851Z,29.20
2022-11-14T12:48:25.541Z,29.80
2022-11-14T12:51:50.267Z,28.90
2022-11-14T12:54:57.580Z,28.30
2022-11-14T12:58:04.540Z,28.20
2022-11-14T13:01:25.029Z,28.60
2022-11-14T13:04:46.157Z,28.80
2022-11-14T13:08:03.497Z,29.10
2022-11-14T13:11:53.581Z,29.50
2022-11-14T13:15:36.655Z,29.90
2022-11-14T13:19:12.957Z,29.70
2022-11-14T13:22:20.576Z,29.90
2022-11-14T13:25:24.822Z,29.90
2022-11-14T13:28:38.475Z,29.90
2022-11-14T13:31:46.995Z,30.10
2022-11-14T13:35:03.919Z,29.80
2022-11-14T13:38:35.784Z,29.30
2022-11-14T13:42:14.043Z,29.10
2022-11-14T13:45:41.936Z,28.90
2022-11-14T13:49:32.709Z,28.90
2022-11-14T13:52:46.175Z,29.00
2022-11-14T13:56:14.548Z,28.70
2022-11-14T13:59:30.487Z,28.90
2022-11-14T14:03:10.336Z,28.90
2022-11-14T14:06:41.761Z,28.70
2022-11-14T14:09:58.335Z,28.70
2022-11-14T14:13:33.925Z,28.80
2022-11-14T14:16:58.623Z,28.90
2022-11-14T14:20:30.745Z,29.00
2022-11-14T14:23:46.378Z,28.90
2022-11-14T14:27:11.378Z,28.00
2022-11-14T14:30:19.598Z,27.60
2022-11-14T14:33:26.496Z,27.70
2022-11-14T14:36:31.772Z,27.50
2022-11-14T14:39:35.974Z,27.60
2022-11-14T14:42:45.350Z,27.80
2022-11-14T14:45:53.297Z,27.70
2022-11-14T14:49:01.610Z,27.60
2022-11-14T14:52:38.148Z,27.20
2022-11-14T14:55:41.992Z,26.80
2022-11-14T14:58:46.028Z,26.70
2022-11-14T15:01:50.517Z,26.40
2022-11-14T15:05:01.638Z,26.00
2022-11-14T15:08:05.923Z,25.40
2022-11-14T15:11:10.146Z,24.60
2022-11-14T15:14:19.326Z,23.80
2022-11-14T15:17:24.206Z,22.80
2022-11-14T15:20:29.772Z,21.90
2022-11-14T15:23:33.868Z,20.50
2022-11-14T15:26:38.627Z,19.20
2022-11-14T15:29:56.269Z,18.10
2022-11-14T15:33:25.910Z,17.00
2022-11-14T15:36:30.193Z,16.10
2022-11-14T15:39:35.031Z,15.70
2022-11-14T15:42:39.367Z,15.20
2022-11-14T15:45:43.801Z,14.60
2022-11-14T15:48:48.107Z,13.90
2022-11-14T15:51:58.246Z,13.30
2022-11-14T15:55:03.644Z,12.80
2022-11-14T16:01:39.054Z,12.00
2022-11-14T16:04:47.573Z,11.50
2022-11-14T16:07:52.602Z,11.20
2022-11-14T16:10:56.879Z,10.80
2022-11-14T16:14:01.314Z,10.60
2022-11-14T16:17:16.798Z,10.40
2022-11-14T16:20:26.786Z,10.10
2022-11-14T16:23:31.347Z,9.90
2022-11-14T16:26:38.718Z,9.70
2022-11-14T16:29:43.157Z,9.60
2022-11-14T16:32:48.722Z,9.40
2022-11-14T16:35:52.895Z,9.20
2022-11-14T16:39:04.126Z,9.10
2022-11-14T16:42:11.169Z,9.00
2022-11-14T16:45:17.144Z,8.80
2022-11-14T16:48:22.461Z,8.70
2022-11-14T16:51:47.939Z,8.60
2022-11-14T16:54:51.593Z,8.50
2022-11-14T16:57:56.194Z,8.40
2022-11-14T17:01:00.716Z,8.30
2022-11-14T17:04:05.589Z,8.20
2022-11-14T17:07:10.729Z,8.20
2022-11-14T17:10:14.678Z,8.10
2022-11-14T17:13:24.289Z,8.00
2022-11-14T17:16:28.641Z,8.00
2022-11-14T17:19:33.250Z,7.90
2022-11-14T17:22:37.758Z,7.90
2022-11-14T17:25:42.203Z,7.90
2022-11-14T17:28:46.283Z,7.80
2022-11-14T17:31:50.571Z,7.80
2022-11-14T17:34:55.122Z,7.70
2022-11-14T17:38:00.443Z,7.70
2022-11-14T17:41:06.172Z,7.60
2022-11-14T17:44:13.290Z,7.60
2022-11-14T17:47:17.738Z,7.60
2022-11-14T17:50:22.213Z,7.50
2022-11-14T17:53:26.431Z,7.40
2022-11-14T17:56:31.033Z,7.30
2022-11-14T17:59:36.513Z,7.30
2022-11-14T18:02:41.163Z,7.30
2022-11-14T18:05:48.248Z,7.30
2022-11-14T18:08:52.771Z,7.20
2022-11-14T18:11:57.156Z,7.20
2022-11-14T18:15:05.460Z,7.20
2022-11-14T18:18:09.614Z,7.20
2022-11-14T18:21:17.076Z,7.20
2022-11-14T18:24:21.937Z,7.20
2022-11-14T18:27:26.271Z,7.20
2022-11-14T18:30:45.518Z,7.20
2022-11-14T18:33:49.712Z,7.10
2022-11-14T18:36:54.546Z,7.10
2022-11-14T18:39:58.823Z,7.00
2022-11-14T18:43:03.701Z,6.90
2022-11-14T18:46:17.167Z,6.90
2022-11-14T18:49:21.766Z,6.90
2022-11-14T18:52:26.266Z,6.80
2022-11-14T18:55:30.231Z,6.70
2022-11-14T18:58:35.983Z,6.80
2022-11-14T19:01:40.456Z,6.90
2022-11-14T19:04:44.342Z,6.90
2022-11-14T19:07:52.120Z,7.00
2022-11-14T19:11:03.940Z,7.10
2022-11-14T19:14:08.106Z,7.20
2022-11-14T19:17:13.461Z,7.30
2022-11-14T19:20:17.794Z,7.40
2022-11-14T19:23:22.065Z,7.50
2022-11-14T19:26:27.360Z,7.60
2022-11-14T19:29:31.602Z,7.60
2022-11-14T19:32:36.019Z,7.70
2022-11-14T19:35:40.452Z,7.80
2022-11-14T19:38:44.590Z,7.80
2022-11-14T19:41:48.699Z,7.90
2022-11-14T19:44:53.290Z,8.00
2022-11-14T19:47:57.794Z,8.00
2022-11-14T19:51:07.990Z,8.00
2022-11-14T19:54:12.276Z,8.00
2022-11-14T19:57:16.550Z,8.00
2022-11-14T20:00:20.810Z,8.10
2022-11-14T20:03:27.015Z,8.00
2022-11-14T20:06:34.209Z,8.00
2022-11-14T20:09:39.349Z,8.10
2022-11-14T20:12:43.891Z,8.10
2022-11-14T20:15:48.187Z,8.00
2022-11-14T20:18:58.645Z,8.00
2022-11-14T20:22:10.182Z,8.00
2022-11-14T20:25:16.201Z,8.00
2022-11-14T20:28:20.020Z,8.00
2022-11-14T20:31:27.505Z,8.10
2022-11-14T20:34:32.173Z,8.10
2022-11-14T20:37:36.056Z,8.10
2022-11-14T20:40:43.178Z,8.10
2022-11-14T20:43:48.055Z,8.10
2022-11-14T20:46:51.941Z,8.10
2022-11-14T20:49:56.514Z,8.20
2022-11-14T20:53:00.830Z,8.20
2022-11-14T20:56:05.204Z,8.20
2022-11-14T20:59:09.370Z,8.20
2022-11-14T21:02:14.838Z,8.30
2022-11-14T21:05:19.054Z,8.30
2022-11-14T21:08:45.652Z,8.30
2022-11-14T21:11:48.643Z,8.30
2022-11-14T21:14:52.926Z,8.30
2022-11-14T21:18:00.291Z,8.30
2022-11-14T21:21:10.671Z,8.30
2022-11-14T21:24:14.961Z,8.30
2022-11-14T21:27:19.135Z,8.30
2022-11-14T21:30:23.539Z,8.40
2022-11-14T21:33:29.447Z,8.40
2022-11-14T21:36:49.160Z,8.40
2022-11-14T21:39:53.302Z,8.40
2022-11-14T21:42:57.511Z,8.40
2022-11-14T21:46:07.166Z,8.50
2022-11-14T21:49:11.049Z,8.50
2022-11-14T21:52:15.478Z,8.50
2022-11-14T21:55:22.482Z,8.50
2022-11-14T21:58:32.630Z,8.50
2022-11-14T22:01:55.484Z,8.60
2022-11-14T22:05:00.030Z,8.60
2022-11-14T22:08:04.302Z,8.60
2022-11-14T22:11:08.725Z,8.60
2022-11-14T22:14:12.947Z,8.60
2022-11-14T22:17:17.628Z,8.70
2022-11-14T22:20:23.306Z,8.70
2022-11-14T22:23:31.174Z,8.70
2022-11-14T22:26:39.755Z,8.70
2022-11-14T22:29:44.208Z,8.70
2022-11-14T22:32:51.230Z,8.70
2022-11-14T22:36:07.357Z,8.80
2022-11-14T22:39:11.290Z,8.80
2022-11-14T22:42:15.709Z,8.80
2022-11-14T22:45:20.261Z,8.80
2022-11-14T22:48:25.960Z,8.80
2022-11-14T22:51:32.859Z,8.90
2022-11-14T22:54:40.452Z,8.90
2022-11-14T22:57:47.846Z,9.00
2022-11-14T23:00:52.713Z,9.00
2022-11-14T23:04:02.435Z,9.10
2022-11-14T23:07:06.845Z,9.00
2022-11-14T23:10:11.379Z,9.00
2022-11-14T23:13:15.642Z,9.00
2022-11-14T23:16:25.854Z,9.00
2022-11-14T23:19:29.927Z,9.10
2022-11-14T23:22:34.507Z,9.10
2022-11-14T23:25:38.867Z,9.10
2022-11-14T23:28:43.937Z,9.10
2022-11-14T23:31:48.356Z,9.10
2022-11-14T23:34:52.482Z,9.10
2022-11-14T23:37:56.610Z,9.20
2022-11-14T23:41:01.924Z,9.30
2022-11-14T23:44:06.249Z,9.30
2022-11-14T23:47:13.742Z,9.30
2022-11-14T23:50:18.133Z,9.30
2022-11-14T23:53:22.383Z,9.30
2022-11-14T23:56:26.930Z,9.40
2022-11-14T23:59:31.100Z,9.40
